createdAt,value
2022-12-29T00:00:28.085Z,4.20
2022-12-29T00:02:57.555Z,3.30
2022-12-29T00:05:27.220Z,5.05
2022-12-29T00:07:56.488Z,6.28
2022-12-29T00:10:26.279Z,3.30
2022-12-29T00:13:13.521Z,3.87
2022-12-29T00:15:42.838Z,4.30
2022-12-29T00:18:12.138Z,4.42
2022-12-29T00:20:59.386Z,4.50
2022-12-29T00:23:46.455Z,3.55
2022-12-29T00:26:35.259Z,5.28
2022-12-29T00:29:22.822Z,4.00
2022-12-29T00:32:10.071Z,2.77
2022-12-29T00:34:57.265Z,3.02
2022-12-29T00:37:28.865Z,2.33
2022-12-29T00:40:16.345Z,2.37
2022-12-29T00:43:03.452Z,3.60
2022-12-29T00:45:32.678Z,3.65
2022-12-29T00:48:01.912Z,3.65
2022-12-29T00:50:31.514Z,3.30
2022-12-29T00:53:00.869Z,3.85
2022-12-29T00:55:30.402Z,3.30
2022-12-29T00:58:00.042Z,3.02
2022-12-29T01:00:29.597Z,3.83
2022-12-29T01:02:59.402Z,2.25
2022-12-29T01:05:28.875Z,2.17
2022-12-29T01:07:58.393Z,3.00
2022-12-29T01:10:27.992Z,2.25
2022-12-29T01:12:57.799Z,2.90
2022-12-29T01:15:27.036Z,2.52
2022-12-29T01:17:56.672Z,4.42
2022-12-29T01:20:26.034Z,2.72
2022-12-29T01:22:55.509Z,4.20
2022-12-29T01:25:24.717Z,4.90
2022-12-29T01:27:53.928Z,4.95
2022-12-29T01:30:23.167Z,3.65
2022-12-29T01:32:54.070Z,3.50
2022-12-29T01:35:23.349Z,3.20
2022-12-29T01:37:52.660Z,3.47
2022-12-29T01:40:22.328Z,4.75
2022-12-29T01:42:51.675Z,3.67
2022-12-29T01:45:21.044Z,4.12
2022-12-29T01:47:56.531Z,3.75
2022-12-29T01:50:28.707Z,2.30
2022-12-29T01:53:06.668Z,4.30
2022-12-29T01:55:40.019Z,2.55
2022-12-29T01:58:11.983Z,1.75
2022-12-29T02:00:41.497Z,3.62
2022-12-29T02:03:12.001Z,2.33
2022-12-29T02:05:47.283Z,4.55
2022-12-29T02:08:16.818Z,5.37
2022-12-29T02:10:47.197Z,4.37
2022-12-29T02:13:19.288Z,3.67
2022-12-29T02:16:09.641Z,4.30
2022-12-29T02:19:10.747Z,3.90
2022-12-29T02:22:09.034Z,4.55
2022-12-29T02:25:10.181Z,8.38
2022-12-29T02:28:01.389Z,6.22
2022-12-29T02:30:59.400Z,3.52
2022-12-29T02:33:38.544Z,6.40
2022-12-29T02:36:28.586Z,5.87
2022-12-29T02:39:03.466Z,5.47
2022-12-29T02:41:48.747Z,5.80
2022-12-29T02:44:29.878Z,4.10
2022-12-29T02:47:14.340Z,5.05
2022-12-29T02:49:55.115Z,6.03
2022-12-29T02:52:28.644Z,5.45
2022-12-29T02:54:57.958Z,6.53
2022-12-29T02:57:30.169Z,7.30
2022-12-29T03:00:14.144Z,7.22
2022-12-29T03:02:56.087Z,7.20
2022-12-29T03:05:31.134Z,5.30
2022-12-29T03:08:32.408Z,6.40
2022-12-29T03:11:09.152Z,6.90
2022-12-29T03:13:59.054Z,6.20
2022-12-29T03:16:31.838Z,9.80
2022-12-29T03:19:28.745Z,8.00
2022-12-29T03:22:18.748Z,9.35
2022-12-29T03:24:56.844Z,9.68
2022-12-29T03:27:33.160Z,10.75
2022-12-29T03:30:06.267Z,8.30
2022-12-29T03:32:38.430Z,10.32
2022-12-29T03:35:11.267Z,5.92
2022-12-29T03:37:43.720Z,9.00
2022-12-29T03:40:13.831Z,6.67
2022-12-29T03:42:44.051Z,6.50
2022-12-29T03:45:14.024Z,6.00
2022-12-29T03:47:43.684Z,7.62
2022-12-29T03:50:14.987Z,7.50
2022-12-29T03:52:44.766Z,5.17
2022-12-29T03:55:14.468Z,5.08
2022-12-29T03:57:44.785Z,4.78
2022-12-29T04:00:16.599Z,6.37
2022-12-29T04:02:49.638Z,6.80
2022-12-29T04:05:25.781Z,7.87
2022-12-29T04:07:56.643Z,6.45
2022-12-29T04:10:26.213Z,6.83
2022-12-29T04:12:57.125Z,5.42
2022-12-29T04:15:27.589Z,6.90
2022-12-29T04:17:56.970Z,7.00
2022-12-29T04:20:44.513Z,6.85
2022-12-29T04:23:14.407Z,7.05
2022-12-29T04:25:47.831Z,8.38
2022-12-29T04:28:19.635Z,8.35
2022-12-29T04:30:50.976Z,6.95
2022-12-29T04:33:23.010Z,7.80
2022-12-29T04:35:54.031Z,9.48
2022-12-29T04:38:25.054Z,5.90
2022-12-29T04:40:56.354Z,6.97
2022-12-29T04:43:25.933Z,7.15
2022-12-29T04:45:57.096Z,10.95
2022-12-29T04:48:33.901Z,10.08
2022-12-29T04:51:14.575Z,6.78
2022-12-29T04:53:44.465Z,9.50
2022-12-29T04:56:14.245Z,7.53
2022-12-29T04:58:44.122Z,7.22
2022-12-29T05:01:13.581Z,7.28
2022-12-29T05:03:43.472Z,9.23
2022-12-29T05:06:13.061Z,9.10
2022-12-29T05:08:42.543Z,8.75
2022-12-29T05:11:12.622Z,12.33
2022-12-29T05:13:42.346Z,12.37
2022-12-29T05:16:11.991Z,12.45
2022-12-29T05:18:41.381Z,9.23
2022-12-29T05:21:10.930Z,10.30
2022-12-29T05:23:41.885Z,14.65
2022-12-29T05:26:11.172Z,8.65
2022-12-29T05:28:48.184Z,9.43
2022-12-29T05:31:19.198Z,9.25
2022-12-29T05:33:50.414Z,10.13
2022-12-29T05:36:20.634Z,12.88
2022-12-29T05:38:51.776Z,9.90
2022-12-29T05:41:21.179Z,9.25
2022-12-29T05:43:54.960Z,9.85
2022-12-29T05:46:32.240Z,11.88
2022-12-29T05:49:03.496Z,10.55
2022-12-29T05:51:47.385Z,10.08
2022-12-29T05:54:18.248Z,12.03
2022-12-29T05:56:48.263Z,12.13
2022-12-29T05:59:17.964Z,12.30
2022-12-29T06:01:49.393Z,12.58
2022-12-29T06:04:19.301Z,10.05
2022-12-29T06:06:49.909Z,11.65
2022-12-29T06:09:21.100Z,8.70
2022-12-29T06:11:50.337Z,11.45
2022-12-29T06:14:21.442Z,8.53
2022-12-29T06:16:50.930Z,9.30
2022-12-29T06:19:20.599Z,13.22
2022-12-29T06:21:50.285Z,9.73
2022-12-29T06:24:20.085Z,9.90
2022-12-29T06:26:51.780Z,12.95
2022-12-29T06:29:21.695Z,7.60
2022-12-29T06:31:52.388Z,9.30
2022-12-29T06:34:22.378Z,11.40
2022-12-29T06:36:51.679Z,7.20
2022-12-29T06:39:21.267Z,12.00
2022-12-29T06:41:55.750Z,8.43
2022-12-29T06:44:26.678Z,13.10
2022-12-29T06:46:58.562Z,8.55
2022-12-29T06:49:27.834Z,9.38
2022-12-29T06:51:58.952Z,10.63
2022-12-29T06:54:28.365Z,7.47
2022-12-29T06:56:57.617Z,7.28
2022-12-29T06:59:27.140Z,8.88
2022-12-29T07:01:56.522Z,6.35
2022-12-29T07:04:26.011Z,11.70
2022-12-29T07:06:55.678Z,12.68
2022-12-29T07:09:24.885Z,7.92
2022-12-29T07:11:54.466Z,11.55
2022-12-29T07:14:23.671Z,10.43
2022-12-29T07:16:52.980Z,10.23
2022-12-29T07:19:22.187Z,7.95
2022-12-29T07:21:51.419Z,10.45
2022-12-29T07:24:20.678Z,11.53
2022-12-29T07:26:49.908Z,6.42
2022-12-29T07:29:19.643Z,10.85
2022-12-29T07:31:49.149Z,13.32
2022-12-29T07:34:18.962Z,11.12
2022-12-29T07:36:48.551Z,9.85
2022-12-29T07:39:18.271Z,13.20
2022-12-29T07:41:47.913Z,13.20
2022-12-29T07:44:19.235Z,10.65
2022-12-29T07:47:06.842Z,13.40
2022-12-29T07:49:36.316Z,15.83
2022-12-29T07:52:06.768Z,16.07
2022-12-29T07:54:36.411Z,13.15
2022-12-29T07:57:06.829Z,12.25
2022-12-29T07:59:36.347Z,9.43
2022-12-29T08:02:05.633Z,9.98
2022-12-29T08:04:35.316Z,10.65
2022-12-29T08:07:04.521Z,11.95
2022-12-29T08:09:33.831Z,11.60
2022-12-29T08:12:03.201Z,10.80
2022-12-29T08:14:32.429Z,8.78
2022-12-29T08:17:01.657Z,10.50
2022-12-29T08:19:31.317Z,12.58
2022-12-29T08:22:00.584Z,17.48
2022-12-29T08:24:29.818Z,10.93
2022-12-29T08:27:01.970Z,15.40
2022-12-29T08:29:30.619Z,14.58
2022-12-29T08:31:59.999Z,11.90
2022-12-29T08:34:29.656Z,9.95
2022-12-29T08:36:59.241Z,13.10
2022-12-29T08:39:28.865Z,13.32
2022-12-29T08:41:58.152Z,7.72
2022-12-29T08:44:27.566Z,13.85
2022-12-29T08:46:57.150Z,14.07
2022-12-29T08:49:26.738Z,13.93
2022-12-29T08:51:56.180Z,14.18
2022-12-29T08:54:25.497Z,15.50
2022-12-29T08:56:54.822Z,15.83
2022-12-29T08:59:25.895Z,10.72
2022-12-29T09:01:56.611Z,13.30
2022-12-29T09:04:26.877Z,12.68
2022-12-29T09:06:56.678Z,13.72
2022-12-29T09:09:26.096Z,14.03
2022-12-29T09:11:56.637Z,14.47
2022-12-29T09:14:26.367Z,12.18
2022-12-29T09:17:14.574Z,15.55
2022-12-29T09:19:44.389Z,12.88
2022-12-29T09:22:14.149Z,12.58
2022-12-29T09:24:43.728Z,13.20
2022-12-29T09:27:12.937Z,11.20
2022-12-29T09:29:43.079Z,11.12
2022-12-29T09:32:18.212Z,12.78
2022-12-29T09:34:43.559Z,9.63
2022-12-29T09:37:13.000Z,14.63
2022-12-29T09:39:42.793Z,14.40
2022-12-29T09:42:27.031Z,16.45
2022-12-29T09:45:08.084Z,16.07
2022-12-29T09:47:37.881Z,14.40
2022-12-29T09:50:25.003Z,16.85
2022-12-29T09:53:12.635Z,10.63
2022-12-29T09:55:45.064Z,15.15
2022-12-29T09:58:35.847Z,16.05
2022-12-29T10:01:17.366Z,19.45
2022-12-29T10:03:52.399Z,11.63
2022-12-29T10:07:27.359Z,14.58
2022-12-29T10:09:34.249Z,14.45
2022-12-29T10:12:15.607Z,13.40
2022-12-29T10:14:51.064Z,19.67
2022-12-29T10:17:32.479Z,19.00
2022-12-29T10:20:21.947Z,17.92
2022-12-29T10:23:10.711Z,17.12
2022-12-29T10:25:40.990Z,22.58
2022-12-29T10:28:19.196Z,16.23
2022-12-29T10:30:50.969Z,16.40
2022-12-29T10:33:29.455Z,19.57
2022-12-29T10:35:59.085Z,19.70
2022-12-29T10:38:31.132Z,18.92
2022-12-29T10:41:09.378Z,17.70
2022-12-29T10:43:53.530Z,20.70
2022-12-29T10:46:28.819Z,21.00
2022-12-29T10:48:58.148Z,23.00
2022-12-29T10:51:33.240Z,21.12
2022-12-29T10:54:09.386Z,22.10
2022-12-29T10:56:48.362Z,22.17
2022-12-29T10:59:20.732Z,20.72
2022-12-29T11:02:08.683Z,23.95
2022-12-29T11:04:57.905Z,24.27
2022-12-29T11:07:27.919Z,21.30
2022-12-29T11:09:57.313Z,21.87
2022-12-29T11:12:28.897Z,21.12
2022-12-29T11:15:13.611Z,19.35
2022-12-29T11:17:52.066Z,20.23
2022-12-29T11:20:29.675Z,17.35
2022-12-29T11:22:59.214Z,15.08
2022-12-29T11:25:28.780Z,19.00
2022-12-29T11:28:01.308Z,15.23
2022-12-29T11:33:05.444Z,22.87
2022-12-29T11:35:43.135Z,20.43
2022-12-29T11:38:24.593Z,21.25
2022-12-29T11:40:54.084Z,24.43
2022-12-29T11:43:38.672Z,18.15
2022-12-29T11:46:08.788Z,16.32
2022-12-29T11:48:42.645Z,17.70
2022-12-29T11:51:13.461Z,19.20
2022-12-29T11:53:47.952Z,18.42
2022-12-29T11:56:20.559Z,17.77
2022-12-29T12:01:24.581Z,33.15
2022-12-29T12:04:02.974Z,16.60
2022-12-29T12:06:35.138Z,22.67
2022-12-29T12:09:10.417Z,16.23
2022-12-29T12:14:55.830Z,18.37
2022-12-29T12:17:33.528Z,19.82
2022-12-29T12:20:06.651Z,18.35
2022-12-29T12:22:38.611Z,18.30
2022-12-29T12:25:17.282Z,16.07
2022-12-29T12:27:55.386Z,16.05
2022-12-29T12:30:26.507Z,14.93
2022-12-29T12:33:13.987Z,18.73
2022-12-29T12:36:03.577Z,16.30
2022-12-29T12:38:47.600Z,15.93
2022-12-29T12:41:38.181Z,12.63
2022-12-29T12:44:16.055Z,12.80
2022-12-29T12:46:57.272Z,12.37
2022-12-29T12:49:38.542Z,17.62
2022-12-29T12:52:11.192Z,19.35
2022-12-29T12:57:25.993Z,13.40
2022-12-29T13:00:07.502Z,16.27
2022-12-29T13:02:40.425Z,11.90
2022-12-29T13:05:24.301Z,12.18
2022-12-29T13:08:08.221Z,9.25
2022-12-29T13:10:59.022Z,8.88
2022-12-29T13:13:54.936Z,8.28
2022-12-29T13:16:45.661Z,6.20
2022-12-29T13:19:27.365Z,8.10
2022-12-29T13:22:17.637Z,6.78
2022-12-29T13:24:53.045Z,6.22
2022-12-29T13:27:33.557Z,5.30
2022-12-29T13:30:02.595Z,9.28
2022-12-29T13:32:46.786Z,9.55
2022-12-29T13:35:22.097Z,9.85
2022-12-29T13:38:01.086Z,13.32
2022-12-29T13:40:35.197Z,12.95
2022-12-29T13:43:05.127Z,11.38
2022-12-29T13:45:36.560Z,12.30
2022-12-29T13:48:21.292Z,15.40
2022-12-29T13:50:56.996Z,13.20
2022-12-29T13:53:38.061Z,13.80
2022-12-29T13:56:21.547Z,14.07
2022-12-29T13:58:53.928Z,10.32
2022-12-29T14:01:26.748Z,13.15
2022-12-29T14:03:58.352Z,11.20
2022-12-29T14:06:30.521Z,13.28
2022-12-29T14:09:05.658Z,11.25
2022-12-29T14:11:42.449Z,12.15
2022-12-29T14:14:30.702Z,14.28
2022-12-29T14:17:15.253Z,13.60
2022-12-29T14:19:46.350Z,13.22
2022-12-29T14:22:30.702Z,14.65
2022-12-29T14:24:56.010Z,14.00
2022-12-29T14:27:31.408Z,12.50
2022-12-29T14:30:00.704Z,11.57
2022-12-29T14:32:35.892Z,9.98
2022-12-29T14:35:42.506Z,12.98
2022-12-29T14:38:29.709Z,13.72
2022-12-29T14:41:21.188Z,15.72
2022-12-29T14:44:01.906Z,9.78
2022-12-29T14:46:51.772Z,16.62
2022-12-29T14:49:24.452Z,12.23
2022-12-29T14:51:57.255Z,12.40
2022-12-29T14:54:42.186Z,10.95
2022-12-29T14:57:31.797Z,8.15
2022-12-29T15:00:20.763Z,13.48
2022-12-29T15:02:53.210Z,13.38
2022-12-29T15:05:41.694Z,16.12
2022-12-29T15:08:11.470Z,13.88
2022-12-29T15:10:46.761Z,10.03
2022-12-29T15:13:21.971Z,8.78
2022-12-29T15:15:51.478Z,11.57
2022-12-29T15:18:28.942Z,9.25
2022-12-29T15:21:06.697Z,10.45
2022-12-29T15:23:37.365Z,9.05
2022-12-29T15:26:10.579Z,10.23
2022-12-29T15:28:45.666Z,6.67
2022-12-29T15:31:18.496Z,9.05
2022-12-29T15:33:50.253Z,8.28
2022-12-29T15:36:28.466Z,6.10
2022-12-29T15:38:57.873Z,9.03
2022-12-29T15:41:37.747Z,7.97
2022-12-29T15:44:15.921Z,6.03
2022-12-29T15:46:45.502Z,12.80
2022-12-29T15:49:16.770Z,8.80
2022-12-29T15:51:46.756Z,9.83
2022-12-29T15:54:21.476Z,11.80
2022-12-29T15:56:51.430Z,10.28
2022-12-29T15:59:35.124Z,8.65
2022-12-29T16:02:11.873Z,10.72
2022-12-29T16:04:48.482Z,12.25
2022-12-29T16:07:10.929Z,9.58
2022-12-29T16:09:46.925Z,7.08
2022-12-29T16:12:19.400Z,11.73
2022-12-29T16:14:54.597Z,12.05
2022-12-29T16:17:28.062Z,10.48
2022-12-29T16:20:10.118Z,7.75
2022-12-29T16:22:41.884Z,9.45
2022-12-29T16:25:35.280Z,8.03
2022-12-29T16:28:05.282Z,15.55
2022-12-29T16:30:38.296Z,18.62
2022-12-29T16:33:08.765Z,14.63
2022-12-29T16:35:48.684Z,14.03
2022-12-29T16:38:24.962Z,12.07
2022-12-29T16:41:04.946Z,11.55
2022-12-29T16:43:39.998Z,12.75
2022-12-29T16:46:23.755Z,13.78
2022-12-29T16:48:56.103Z,14.18
2022-12-29T16:51:34.000Z,9.05
2022-12-29T16:54:04.107Z,18.20
2022-12-29T16:56:37.515Z,24.92
2022-12-29T16:59:26.678Z,12.15
2022-12-29T17:01:56.428Z,16.85
2022-12-29T17:04:25.704Z,14.07
2022-12-29T17:06:55.187Z,11.22
2022-12-29T17:09:29.287Z,20.15
2022-12-29T17:12:08.624Z,8.48
2022-12-29T17:14:51.288Z,14.18
2022-12-29T17:17:29.525Z,13.58
2022-12-29T17:20:03.098Z,15.23
2022-12-29T17:22:33.209Z,11.60
2022-12-29T17:25:03.946Z,11.25
2022-12-29T17:27:42.565Z,12.82
2022-12-29T17:30:17.136Z,14.93
2022-12-29T17:32:49.540Z,17.52
2022-12-29T17:35:20.398Z,18.07
2022-12-29T17:37:50.267Z,18.62
2022-12-29T17:40:25.718Z,14.15
2022-12-29T17:42:57.282Z,18.25
2022-12-29T17:45:29.201Z,20.00
2022-12-29T17:48:02.392Z,15.43
2022-12-29T17:50:32.958Z,17.85
2022-12-29T17:53:04.806Z,13.18
2022-12-29T17:55:37.972Z,22.45
2022-12-29T17:58:26.534Z,18.17
2022-12-29T18:01:00.907Z,19.50
2022-12-29T18:03:38.831Z,20.40
2022-12-29T18:06:09.045Z,22.05
2022-12-29T18:08:40.126Z,17.05
2022-12-29T18:11:26.609Z,17.75
2022-12-29T18:13:55.915Z,16.55
2022-12-29T18:16:25.233Z,18.10
2022-12-29T18:18:54.533Z,24.80
2022-12-29T18:21:25.541Z,22.95
2022-12-29T18:23:54.951Z,21.87
2022-12-29T18:26:28.767Z,17.80
2022-12-29T18:28:59.967Z,20.17
2022-12-29T18:31:32.108Z,33.58
2022-12-29T18:34:03.666Z,19.45
2022-12-29T18:36:33.060Z,22.85
2022-12-29T18:39:02.429Z,19.85
2022-12-29T18:41:31.862Z,18.87
2022-12-29T18:44:01.509Z,22.02
2022-12-29T18:46:31.014Z,24.50
2022-12-29T18:49:00.272Z,26.25
2022-12-29T18:51:29.511Z,20.17
2022-12-29T18:53:58.854Z,28.05
2022-12-29T18:56:28.267Z,18.77
2022-12-29T18:58:57.668Z,20.02
2022-12-29T19:01:28.736Z,21.45
2022-12-29T19:03:58.590Z,17.67
2022-12-29T19:06:27.854Z,21.68
2022-12-29T19:08:57.311Z,23.90
2022-12-29T19:11:26.583Z,21.25
2022-12-29T19:13:56.184Z,22.17
2022-12-29T19:16:26.997Z,19.15
2022-12-29T19:19:08.954Z,24.12
2022-12-29T19:21:27.507Z,21.52
2022-12-29T19:23:57.137Z,24.92
2022-12-29T19:26:31.927Z,22.02
2022-12-29T19:29:01.592Z,24.27
2022-12-29T19:31:31.303Z,24.72
2022-12-29T19:34:03.233Z,22.85
2022-12-29T19:36:32.615Z,24.37
2022-12-29T19:39:01.972Z,22.20
2022-12-29T19:41:31.724Z,30.05
2022-12-29T19:44:01.107Z,33.00
2022-12-29T19:46:30.466Z,34.80
2022-12-29T19:49:01.072Z,25.95
2022-12-29T19:51:30.651Z,25.68
2022-12-29T19:53:59.968Z,30.77
2022-12-29T19:56:29.771Z,28.25
2022-12-29T19:58:59.504Z,23.73
2022-12-29T20:01:29.110Z,18.87
2022-12-29T20:03:58.658Z,22.70
2022-12-29T20:06:28.484Z,38.73
2022-12-29T20:08:57.754Z,23.40
2022-12-29T20:11:27.563Z,20.52
2022-12-29T20:13:58.422Z,27.45
2022-12-29T20:16:30.044Z,23.38
2022-12-29T20:18:59.420Z,20.63
2022-12-29T20:21:29.047Z,24.05
2022-12-29T20:23:58.288Z,21.20
2022-12-29T20:26:30.294Z,19.12
2022-12-29T20:29:00.100Z,28.95
2022-12-29T20:31:36.084Z,22.37
2022-12-29T20:34:07.649Z,24.18
2022-12-29T20:36:40.037Z,20.95
2022-12-29T20:39:12.753Z,21.00
2022-12-29T20:41:42.495Z,21.73
2022-12-29T20:44:12.335Z,27.05
2022-12-29T20:46:44.168Z,18.70
2022-12-29T20:49:12.789Z,20.12
2022-12-29T20:54:15.283Z,26.33
2022-12-29T20:56:45.778Z,21.27
2022-12-29T20:59:31.471Z,19.42
2022-12-29T21:01:47.110Z,21.73
2022-12-29T21:04:16.612Z,18.50
2022-12-29T21:06:45.989Z,20.02
2022-12-29T21:09:15.689Z,21.93
2022-12-29T21:11:46.708Z,16.93
2022-12-29T21:14:16.387Z,13.10
2022-12-29T21:16:48.637Z,24.00
2022-12-29T21:19:18.366Z,18.90
2022-12-29T21:21:47.923Z,20.37
2022-12-29T21:24:17.307Z,16.82
2022-12-29T21:26:46.711Z,16.05
2022-12-29T21:29:16.153Z,17.02
2022-12-29T21:31:46.143Z,18.05
2022-12-29T21:34:15.640Z,14.65
2022-12-29T21:36:45.101Z,14.93
2022-12-29T21:39:16.454Z,25.20
2022-12-29T21:41:45.926Z,22.00
2022-12-29T21:44:33.424Z,19.25
2022-12-29T21:47:02.986Z,19.12
2022-12-29T21:49:32.279Z,24.02
2022-12-29T21:52:01.830Z,15.25
2022-12-29T21:54:49.606Z,22.90
2022-12-29T21:57:38.124Z,22.32
2022-12-29T22:00:27.226Z,17.17
2022-12-29T22:03:22.508Z,21.15
2022-12-29T22:06:03.849Z,21.50
2022-12-29T22:08:50.946Z,18.50
2022-12-29T22:11:38.309Z,17.55
2022-12-29T22:14:07.603Z,19.05
2022-12-29T22:16:37.047Z,23.98
2022-12-29T22:19:08.112Z,22.17
2022-12-29T22:21:37.340Z,19.90
2022-12-29T22:24:08.904Z,17.90
2022-12-29T22:26:38.289Z,23.43
2022-12-29T22:29:07.630Z,19.92
2022-12-29T22:31:36.967Z,18.48
2022-12-29T22:34:06.266Z,29.27
2022-12-29T22:36:35.693Z,23.02
2022-12-29T22:39:05.260Z,22.73
2022-12-29T22:41:34.937Z,21.23
2022-12-29T22:44:05.098Z,13.35
2022-12-29T22:46:34.761Z,19.62
2022-12-29T22:49:04.205Z,18.92
2022-12-29T22:51:33.513Z,18.67
2022-12-29T22:54:02.981Z,19.60
2022-12-29T22:56:32.201Z,15.48
2022-12-29T22:59:01.426Z,17.95
2022-12-29T23:01:30.830Z,18.60
2022-12-29T23:04:25.957Z,23.47
2022-12-29T23:06:31.688Z,20.95
2022-12-29T23:09:02.090Z,17.00
2022-12-29T23:11:31.961Z,16.12
2022-12-29T23:14:01.606Z,17.75
2022-12-29T23:16:30.862Z,15.13
2022-12-29T23:19:00.545Z,16.50
2022-12-29T23:21:29.749Z,16.30
2022-12-29T23:24:01.199Z,22.30
2022-12-29T23:26:33.095Z,26.68
2022-12-29T23:29:04.187Z,20.52
2022-12-29T23:31:33.644Z,16.52
2022-12-29T23:34:04.933Z,21.70
2022-12-29T23:36:34.612Z,18.17
2022-12-29T23:39:04.758Z,18.30
2022-12-29T23:41:33.950Z,18.20
2022-12-29T23:44:03.423Z,16.95
2022-12-29T23:46:32.798Z,18.82
2022-12-29T23:49:02.634Z,23.18
2022-12-29T23:51:31.832Z,22.50
2022-12-29T23:54:01.084Z,17.82
2022-12-29T23:56:30.676Z,16.20
2022-12-29T23:59:00.341Z,24.60
